Terminal Aerodrome Forecast
Issued by NWS Sioux Falls, SD

Home | Current Version | Previous Version | Text Only | Print | Product List | Glossary On
Versions: 1 2 3 4 5 6 7 8 9 10 11
000
FTUS43 KFSD 050531
TAFHON
TAF
KHON 050531Z 0506/0606 VRB03KT P6SM SKC
     FM051300 16008KT P6SM SKC
     FM051900 17013G19KT P6SM FEW150
     FM052330 16008KT P6SM SCT110=

USA.gov is the U.S. government's official web portal to all federal, state and local government web resources and services.